Atlantic Star — 2ITA4 — position and weather

sailwx.info

Track history (hours):
 
Tides and Currents Weather Stations Pressure Air Temp Water Temp Dewpoint Dewpoint Depression Visibility Wind Speed Wind Dir Waves Ship Positions

Atlantic Star

Last reported at 2018-Jun-22 02:00 UTC. Time now 2018-Jun-22 01:59 UTC.
Position N 53°31' W 003°26'.

Length 296 m; draft 9.5 m.

Type: Ship (hazmat cat A). MMSI: 235112573.

Date/timePositionNaut miles runAvg speedWind from/ knotsBaromVisibWave heightAir tempDewpointWater temp
2018-Jun-22 02:00N 53°31' W 003°26'4 7.4
2018-Jun-22 01:30N 53°31' W 003°32'4 7.8
2018-Jun-22 01:00N 53°30' W 003°39'4 7.5
2018-Jun-22 00:30N 53°32' W 003°45'4 7.9
2018-Jun-22 00:00N 53°35' W 003°49'4 8.0
2018-Jun-21 23:30N 53°38' W 003°53'4 8.5
2018-Jun-21 22:59N 53°41' W 003°58'4 7.8
2018-Jun-21 22:30N 53°45' W 004°02'4 8.6
2018-Jun-21 22:00N 53°48' W 004°06'38 8.5
2018-Jun-21 17:33N 54°09' W 004°59'115.3
2018-Jun-21 17:29N 54°10' W 004°59'815.6
2018-Jun-21 17:00N 54°17' W 005°04'815.7
2018-Jun-21 16:30N 54°25' W 005°08'815.9
2018-Jun-21 16:00N 54°32' W 005°13'816.6
2018-Jun-21 15:30N 54°40' W 005°17'917.4
2018-Jun-21 15:00N 54°48' W 005°25'917.2
2018-Jun-21 14:30N 54°55' W 005°34'1917.0
2018-Jun-21 13:24N 55°10' W 005°53'717.2
2018-Jun-21 13:00N 55°15' W 006°00'815.3
2018-Jun-21 12:30N 55°21' W 006°09'815.7
2018-Jun-21 12:00N 55°23' W 006°23'715.1
2018-Jun-21 11:30N 55°25' W 006°35'714.6
2018-Jun-21 11:00N 55°27' W 006°48'713.9
2018-Jun-21 10:30N 55°28' W 006°60'3414.1
2018-Jun-21 08:06N 55°27' W 007°59'  
2018-Jun-13 22:45N 40°27' W 073°49'210.0
2018-Jun-13 22:30N 40°28' W 073°52'713.7
2018-Jun-13 21:58N 40°31' W 074°00'613.3
2018-Jun-13 21:30N 40°37' W 074°03'4 7.3
2018-Jun-13 21:00N 40°39' W 074°08'2 3.0
2018-Jun-13 20:30N 40°40' W 074°09'0 0.1
2018-Jun-13 19:59N 40°40' W 074°09'0 0.0
2018-Jun-13 19:29N 40°40' W 074°09'0 0.0
2018-Jun-13 18:59N 40°40' W 074°09'0 0.0
2018-Jun-13 18:29N 40°40' W 074°09'0 0.0
2018-Jun-13 17:59N 40°40' W 074°09'0 0.0
2018-Jun-13 17:29N 40°40' W 074°09'0 0.0
2018-Jun-13 16:59N 40°40' W 074°09'0 0.0
2018-Jun-13 16:29N 40°40' W 074°09'0 0.0
2018-Jun-13 15:59N 40°40' W 074°09'0 0.0
2018-Jun-13 15:29N 40°40' W 074°09'0 0.0
2018-Jun-13 14:59N 40°40' W 074°09'0 0.0
2018-Jun-13 14:29N 40°40' W 074°09'0 0.0
2018-Jun-13 13:59N 40°40' W 074°09'0 0.0
2018-Jun-13 13:29N 40°40' W 074°09'0 0.0
2018-Jun-13 12:59N 40°40' W 074°09'0 0.0
2018-Jun-13 12:29N 40°40' W 074°09'0 0.0
2018-Jun-13 11:59N 40°40' W 074°09'0 0.0
2018-Jun-13 11:29N 40°40' W 074°09'0 0.0
2018-Jun-13 10:59N 40°40' W 074°09'0 0.0
2018-Jun-13 10:29N 40°40' W 074°09'0 0.0
2018-Jun-13 10:00N 40°40' W 074°09'1 2.6
2018-Jun-13 09:30N 40°39' W 074°09'3 7.0
2018-Jun-13 09:00N 40°39' W 074°04'3 6.9
2018-Jun-13 08:30N 40°36' W 074°02'612.1
2018-Jun-13 08:00N 40°31' W 073°58'713.4
2018-Jun-13 07:29N 40°28' W 073°50'4311.4
2018-Jun-13 03:41N 39°46' W 073°36'313.4
2018-Jun-13 03:29N 39°45' W 073°32'3 4.8
2018-Jun-13 02:49N 39°45' W 073°28'1 2.3
2018-Jun-13 02:20N 39°46' W 073°27'0 0.6
2018-Jun-13 01:46N 39°46' W 073°27'0 0.4
2018-Jun-13 01:30N 39°46' W 073°27'1 1.7
2018-Jun-13 01:00N 39°47' W 073°26'0 0.6
2018-Jun-13 00:30N 39°46' W 073°26'0 1.0
2018-Jun-13 00:00N 39°46' W 073°26'2 1.0
2018-Jun-12 22:25N 39°47' W 073°27'0 0.7
2018-Jun-12 22:00N 39°47' W 073°27'1 0.3
2018-Jun-12 19:05N 39°46' W 073°27'2 0.4
2018-Jun-12 14:40N 39°46' W 073°25'0 0.7
2018-Jun-12 14:29N 39°46' W 073°25'0 0.5
2018-Jun-12 13:56N 39°46' W 073°24'0 0.6
2018-Jun-12 13:20N 39°46' W 073°24'0 0.4
2018-Jun-12 13:00N 39°46' W 073°24'0 0.6
2018-Jun-12 12:29N 39°46' W 073°24'2 3.0
2018-Jun-12 11:58N 39°46' W 073°26'1 1.4
2018-Jun-12 11:30N 39°45' W 073°27'0 0.2
2018-Jun-12 10:58N 39°45' W 073°27'0 0.4
2018-Jun-12 10:31N 39°45' W 073°27'0 0.7
2018-Jun-12 09:53N 39°46' W 073°26'0 0.8
2018-Jun-12 09:29N 39°46' W 073°26'1 0.7
2018-Jun-12 08:28N 39°45' W 073°27'1 1.3
2018-Jun-12 07:46N 39°45' W 073°26'0 1.3
2018-Jun-12 07:25N 39°45' W 073°25'1 1.2
2018-Jun-12 06:58N 39°45' W 073°25'1 1.1
2018-Jun-12 06:27N 39°45' W 073°25'2 3.5
2018-Jun-12 05:58N 39°47' W 073°26'1 1.4
2018-Jun-12 05:26N 39°46' W 073°25'1 1.3
2018-Jun-12 04:58N 39°46' W 073°25'1 1.2
2018-Jun-12 04:27N 39°46' W 073°24'0 1.0
2018-Jun-12 04:00N 39°46' W 073°23'1 2.4
2018-Jun-12 03:30N 39°46' W 073°25'1 1.6
2018-Jun-12 03:00N 39°45' W 073°26'1 1.3
2018-Jun-12 02:30N 39°45' W 073°25'  
Track history (hours):
 
Tides and Currents Weather Stations Pressure Air Temp Water Temp Dewpoint Dewpoint Depression Visibility Wind Speed Wind Dir Waves Ship Positions

Atlantic Star

Last reported at 2018-Jun-22 02:00 UTC. Time now 2018-Jun-22 01:59 UTC.
Position N 53°31' W 003°26'.

Length 296 m; draft 9.5 m.

Type: Ship (hazmat cat A). MMSI: 235112573.

Date/timePositionNaut miles runAvg speedWind from/ knotsBaromVisibWave heightAir tempDewpointWater temp
2018-Jun-22 02:00N 53°31' W 003°26'4 7.4
2018-Jun-22 01:30N 53°31' W 003°32'4 7.8
2018-Jun-22 01:00N 53°30' W 003°39'4 7.5
2018-Jun-22 00:30N 53°32' W 003°45'4 7.9
2018-Jun-22 00:00N 53°35' W 003°49'4 8.0
2018-Jun-21 23:30N 53°38' W 003°53'4 8.5
2018-Jun-21 22:59N 53°41' W 003°58'4 7.8
2018-Jun-21 22:30N 53°45' W 004°02'4 8.6
2018-Jun-21 22:00N 53°48' W 004°06'38 8.5
2018-Jun-21 17:33N 54°09' W 004°59'115.3
2018-Jun-21 17:29N 54°10' W 004°59'815.6
2018-Jun-21 17:00N 54°17' W 005°04'815.7
2018-Jun-21 16:30N 54°25' W 005°08'815.9
2018-Jun-21 16:00N 54°32' W 005°13'816.6
2018-Jun-21 15:30N 54°40' W 005°17'917.4
2018-Jun-21 15:00N 54°48' W 005°25'917.2
2018-Jun-21 14:30N 54°55' W 005°34'1917.0
2018-Jun-21 13:24N 55°10' W 005°53'717.2
2018-Jun-21 13:00N 55°15' W 006°00'815.3
2018-Jun-21 12:30N 55°21' W 006°09'815.7
2018-Jun-21 12:00N 55°23' W 006°23'715.1
2018-Jun-21 11:30N 55°25' W 006°35'714.6
2018-Jun-21 11:00N 55°27' W 006°48'713.9
2018-Jun-21 10:30N 55°28' W 006°60'3414.1
2018-Jun-21 08:06N 55°27' W 007°59'  
2018-Jun-13 22:45N 40°27' W 073°49'210.0
2018-Jun-13 22:30N 40°28' W 073°52'713.7
2018-Jun-13 21:58N 40°31' W 074°00'613.3
2018-Jun-13 21:30N 40°37' W 074°03'4 7.3
2018-Jun-13 21:00N 40°39' W 074°08'2 3.0
2018-Jun-13 20:30N 40°40' W 074°09'0 0.1
2018-Jun-13 19:59N 40°40' W 074°09'0 0.0
2018-Jun-13 19:29N 40°40' W 074°09'0 0.0
2018-Jun-13 18:59N 40°40' W 074°09'0 0.0
2018-Jun-13 18:29N 40°40' W 074°09'0 0.0
2018-Jun-13 17:59N 40°40' W 074°09'0 0.0
2018-Jun-13 17:29N 40°40' W 074°09'0 0.0
2018-Jun-13 16:59N 40°40' W 074°09'0 0.0
2018-Jun-13 16:29N 40°40' W 074°09'0 0.0
2018-Jun-13 15:59N 40°40' W 074°09'0 0.0
2018-Jun-13 15:29N 40°40' W 074°09'0 0.0
2018-Jun-13 14:59N 40°40' W 074°09'0 0.0
2018-Jun-13 14:29N 40°40' W 074°09'0 0.0
2018-Jun-13 13:59N 40°40' W 074°09'0 0.0
2018-Jun-13 13:29N 40°40' W 074°09'0 0.0
2018-Jun-13 12:59N 40°40' W 074°09'0 0.0
2018-Jun-13 12:29N 40°40' W 074°09'0 0.0
2018-Jun-13 11:59N 40°40' W 074°09'0 0.0
2018-Jun-13 11:29N 40°40' W 074°09'0 0.0
2018-Jun-13 10:59N 40°40' W 074°09'0 0.0
2018-Jun-13 10:29N 40°40' W 074°09'0 0.0
2018-Jun-13 10:00N 40°40' W 074°09'1 2.6
2018-Jun-13 09:30N 40°39' W 074°09'3 7.0
2018-Jun-13 09:00N 40°39' W 074°04'3 6.9
2018-Jun-13 08:30N 40°36' W 074°02'612.1
2018-Jun-13 08:00N 40°31' W 073°58'713.4
2018-Jun-13 07:29N 40°28' W 073°50'4311.4
2018-Jun-13 03:41N 39°46' W 073°36'313.4
2018-Jun-13 03:29N 39°45' W 073°32'3 4.8
2018-Jun-13 02:49N 39°45' W 073°28'1 2.3
2018-Jun-13 02:20N 39°46' W 073°27'0 0.6
2018-Jun-13 01:46N 39°46' W 073°27'0 0.4
2018-Jun-13 01:30N 39°46' W 073°27'1 1.7
2018-Jun-13 01:00N 39°47' W 073°26'0 0.6
2018-Jun-13 00:30N 39°46' W 073°26'0 1.0
2018-Jun-13 00:00N 39°46' W 073°26'2 1.0
2018-Jun-12 22:25N 39°47' W 073°27'0 0.7
2018-Jun-12 22:00N 39°47' W 073°27'1 0.3
2018-Jun-12 19:05N 39°46' W 073°27'2 0.4
2018-Jun-12 14:40N 39°46' W 073°25'0 0.7
2018-Jun-12 14:29N 39°46' W 073°25'0 0.5
2018-Jun-12 13:56N 39°46' W 073°24'0 0.6
2018-Jun-12 13:20N 39°46' W 073°24'0 0.4
2018-Jun-12 13:00N 39°46' W 073°24'0 0.6
2018-Jun-12 12:29N 39°46' W 073°24'2 3.0
2018-Jun-12 11:58N 39°46' W 073°26'1 1.4
2018-Jun-12 11:30N 39°45' W 073°27'0 0.2
2018-Jun-12 10:58N 39°45' W 073°27'0 0.4
2018-Jun-12 10:31N 39°45' W 073°27'0 0.7
2018-Jun-12 09:53N 39°46' W 073°26'0 0.8
2018-Jun-12 09:29N 39°46' W 073°26'1 0.7
2018-Jun-12 08:28N 39°45' W 073°27'1 1.3
2018-Jun-12 07:46N 39°45' W 073°26'0 1.3
2018-Jun-12 07:25N 39°45' W 073°25'1 1.2
2018-Jun-12 06:58N 39°45' W 073°25'1 1.1
2018-Jun-12 06:27N 39°45' W 073°25'2 3.5
2018-Jun-12 05:58N 39°47' W 073°26'1 1.4
2018-Jun-12 05:26N 39°46' W 073°25'1 1.3
2018-Jun-12 04:58N 39°46' W 073°25'1 1.2
2018-Jun-12 04:27N 39°46' W 073°24'0 1.0
2018-Jun-12 04:00N 39°46' W 073°23'1 2.4
2018-Jun-12 03:30N 39°46' W 073°25'1 1.6
2018-Jun-12 03:00N 39°45' W 073°26'1 1.3
2018-Jun-12 02:30N 39°45' W 073°25'  

Dump ship's entire track history